Time;durP1;ratioP1;P1;durP2;ratioP2;P2;SDS_P1;SDS_P2;PMS_P1;PMS_P2;Temp;Humidity;BMP_temperature;BMP_pressure;BME280_temperature;BME280_humidity;BME280_pressure;Samples;Min_cycle;Max_cycle;Signal;HPM_P1;HPM_P2
2023/10/18 00:00:25;;;;;;;17.13;15.87;;;8.50;99.90;;;;;;5098185;28;20533;-80
2023/10/18 00:02:53;;;;;;;16.20;14.93;;;8.40;99.90;;;;;;5096158;28;20474;-80
2023/10/18 00:05:22;;;;;;;16.83;15.40;;;8.40;99.90;;;;;;5095219;28;20969;-80
2023/10/18 00:07:54;;;;;;;16.20;14.80;;;8.40;99.90;;;;;;5094598;28;20454;-80
2023/10/18 00:10:22;;;;;;;16.50;15.10;;;8.40;99.90;;;;;;5095450;28;20453;-80
2023/10/18 00:12:52;;;;;;;15.30;14.20;;;8.30;99.90;;;;;;5096988;28;20483;-80
2023/10/18 00:15:21;;;;;;;16.07;14.83;;;8.40;99.90;;;;;;5093432;28;20532;-80
2023/10/18 00:17:49;;;;;;;15.80;14.53;;;8.40;99.90;;;;;;5095429;28;20955;-80
2023/10/18 00:20:21;;;;;;;16.27;14.97;;;8.30;99.90;;;;;;5094444;28;20442;-80
2023/10/18 00:22:49;;;;;;;17.03;15.50;;;8.30;99.90;;;;;;5095516;28;20478;-80
2023/10/18 00:25:20;;;;;;;15.37;14.27;;;8.30;99.90;;;;;;5095302;28;20465;-79
2023/10/18 00:27:49;;;;;;;17.50;16.00;;;8.20;99.90;;;;;;5094775;28;20463;-80
2023/10/18 00:30:18;;;;;;;16.73;15.30;;;8.20;99.90;;;;;;5096106;28;20442;-80
2023/10/18 00:32:47;;;;;;;15.77;14.50;;;8.30;99.90;;;;;;5092568;28;21313;-79
2023/10/18 00:35:20;;;;;;;15.93;14.73;;;8.30;99.90;;;;;;5096866;28;20449;-81
2023/10/18 00:37:54;;;;;;;16.67;15.37;;;8.30;99.90;;;;;;5094444;28;20457;-80
2023/10/18 00:40:33;;;;;;;16.83;15.37;;;8.30;99.90;;;;;;5096055;28;20906;-80
2023/10/18 00:43:07;;;;;;;15.43;14.23;;;8.20;99.90;;;;;;5094030;28;21405;-80
2023/10/18 00:45:40;;;;;;;17.33;15.93;;;8.30;99.90;;;;;;5091533;28;20453;-80
2023/10/18 00:48:11;;;;;;;16.03;14.80;;;8.30;99.90;;;;;;5093211;28;20445;-80
2023/10/18 00:50:42;;;;;;;18.20;16.70;;;8.30;99.90;;;;;;5090278;28;20450;-79
2023/10/18 00:53:13;;;;;;;16.10;14.73;;;8.20;99.90;;;;;;5090231;28;20481;-79
2023/10/18 00:55:43;;;;;;;16.60;15.10;;;8.30;99.90;;;;;;5092434;28;20551;-80
2023/10/18 00:58:12;;;;;;;19.23;17.83;;;8.20;99.90;;;;;;5091417;28;20469;-79
2023/10/18 01:00:40;;;;;;;16.80;15.40;;;8.20;99.90;;;;;;5091459;28;20466;-80
2023/10/18 01:03:14;;;;;;;15.30;14.13;;;8.20;99.90;;;;;;5091574;28;20453;-79
2023/10/18 01:06:00;;;;;;;17.07;15.57;;;8.20;99.90;;;;;;5090351;28;20540;-80
2023/10/18 01:08:32;;;;;;;17.30;15.80;;;8.10;99.90;;;;;;5096971;28;20485;-79
2023/10/18 01:11:06;;;;;;;15.90;14.60;;;8.10;99.90;;;;;;5090771;28;21255;-79
2023/10/18 01:13:37;;;;;;;17.40;15.80;;;8.20;99.90;;;;;;5094080;28;20529;-79
2023/10/18 01:16:13;;;;;;;17.07;15.60;;;8.20;99.90;;;;;;5091578;28;20488;-80
2023/10/18 01:18:43;;;;;;;16.30;14.90;;;8.20;99.90;;;;;;5096147;28;20472;-80
2023/10/18 01:21:17;;;;;;;16.87;15.47;;;8.20;99.90;;;;;;5090007;28;20463;-81
2023/10/18 01:23:49;;;;;;;15.40;14.20;;;8.10;99.90;;;;;;5092601;28;20481;-80
2023/10/18 01:26:19;;;;;;;15.80;14.50;;;8.10;99.90;;;;;;5098189;28;20499;-80
2023/10/18 01:28:48;;;;;;;16.33;15.03;;;8.10;99.90;;;;;;5096574;28;20449;-79
2023/10/18 01:31:16;;;;;;;18.03;16.43;;;8.10;99.90;;;;;;5098299;27;20445;-81
2023/10/18 01:33:46;;;;;;;16.53;15.07;;;8.10;99.90;;;;;;5101875;28;21111;-81
2023/10/18 01:36:15;;;;;;;16.63;15.33;;;8.00;99.90;;;;;;5102288;27;20583;-81
2023/10/18 01:38:46;;;;;;;17.73;16.33;;;8.10;99.90;;;;;;5103109;28;20460;-80
2023/10/18 01:41:16;;;;;;;15.90;14.60;;;8.00;99.90;;;;;;5104630;28;20505;-80
2023/10/18 01:43:47;;;;;;;16.50;15.10;;;8.10;99.90;;;;;;5102281;27;20477;-78
2023/10/18 01:46:16;;;;;;;16.47;15.07;;;8.00;99.90;;;;;;5096582;28;20510;-78
2023/10/18 01:48:50;;;;;;;16.37;15.07;;;8.00;99.90;;;;;;5096835;28;20442;-78
2023/10/18 01:51:19;;;;;;;16.40;15.00;;;8.00;99.90;;;;;;5099406;27;20919;-80
2023/10/18 01:53:50;;;;;;;15.93;14.63;;;8.00;99.90;;;;;;5096206;28;20515;-80
2023/10/18 01:56:21;;;;;;;16.27;14.97;;;8.00;99.90;;;;;;5090884;28;20485;-79
2023/10/18 01:58:50;;;;;;;15.97;14.60;;;8.00;99.90;;;;;;5095289;28;20449;-79
2023/10/18 02:01:18;;;;;;;16.63;15.20;;;8.00;99.90;;;;;;5096258;28;20445;-79
2023/10/18 02:03:50;;;;;;;16.87;15.43;;;7.90;99.90;;;;;;5092988;28;20480;-79
2023/10/18 02:06:20;;;;;;;17.07;15.57;;;7.80;99.90;;;;;;5093432;28;20451;-80
2023/10/18 02:08:49;;;;;;;17.07;15.67;;;7.80;99.90;;;;;;5092271;28;21206;-79
2023/10/18 02:11:17;;;;;;;15.90;14.47;;;7.80;99.90;;;;;;5090143;28;20484;-79
2023/10/18 02:13:45;;;;;;;15.77;14.63;;;7.90;99.90;;;;;;5096257;28;20559;-79
2023/10/18 02:16:16;;;;;;;17.93;16.30;;;8.00;99.90;;;;;;5093916;28;20469;-79
2023/10/18 02:18:46;;;;;;;17.20;15.70;;;8.00;99.90;;;;;;5096241;28;20462;-79
2023/10/18 02:21:15;;;;;;;17.83;16.33;;;8.10;99.90;;;;;;5099501;28;20469;-80
2023/10/18 02:23:48;;;;;;;17.10;15.70;;;8.10;99.90;;;;;;5099861;28;20464;-80
2023/10/18 02:26:30;;;;;;;18.37;16.97;;;8.00;99.90;;;;;;5096099;28;20460;-79
2023/10/18 02:29:00;;;;;;;15.27;14.13;;;8.00;99.90;;;;;;5100511;28;20454;-80
2023/10/18 02:31:30;;;;;;;16.93;15.40;;;8.00;99.90;;;;;;5100027;28;20476;-80
2023/10/18 02:33:58;;;;;;;16.40;15.20;;;8.00;99.90;;;;;;5096321;28;20546;-80
2023/10/18 02:36:38;;;;;;;17.00;15.50;;;8.00;99.90;;;;;;5097745;28;20475;-80
2023/10/18 02:39:08;;;;;;;16.27;14.73;;;8.00;99.90;;;;;;5099808;28;20454;-80
2023/10/18 02:41:38;;;;;;;16.43;15.13;;;7.90;99.90;;;;;;5093210;28;20454;-79
2023/10/18 02:44:11;;;;;;;15.63;14.43;;;7.90;99.90;;;;;;5097484;28;21317;-80
2023/10/18 02:46:40;;;;;;;16.40;15.17;;;7.80;99.90;;;;;;5090845;28;20451;-80
2023/10/18 02:49:09;;;;;;;15.10;13.97;;;7.90;99.90;;;;;;5095747;28;20493;-80
2023/10/18 02:51:37;;;;;;;15.97;14.77;;;7.90;99.90;;;;;;5092616;28;20458;-80
2023/10/18 02:54:16;;;;;;;16.83;15.33;;;7.90;99.90;;;;;;5096289;28;20908;-79
2023/10/18 02:56:50;;;;;;;17.07;15.67;;;8.00;99.90;;;;;;5097114;28;20449;-80
2023/10/18 02:59:24;;;;;;;16.40;15.10;;;7.90;99.90;;;;;;5094046;27;21257;-80
2023/10/18 03:01:55;;;;;;;16.67;15.20;;;7.90;99.90;;;;;;5096324;28;20500;-80
2023/10/18 03:04:29;;;;;;;16.87;15.43;;;8.00;99.90;;;;;;5094612;28;20541;-80
2023/10/18 03:06:57;;;;;;;17.17;15.67;;;8.00;99.90;;;;;;5092420;28;20455;-79
2023/10/18 03:09:38;;;;;;;17.13;15.57;;;8.00;99.90;;;;;;5091021;28;20482;-81
2023/10/18 03:12:13;;;;;;;17.30;15.80;;;7.90;99.90;;;;;;5092875;28;20576;-80
2023/10/18 03:14:53;;;;;;;16.33;15.03;;;7.90;99.90;;;;;;5094303;28;20445;-80
2023/10/18 03:17:24;;;;;;;17.57;16.00;;;8.00;99.90;;;;;;5096220;28;20457;-80
2023/10/18 03:19:55;;;;;;;15.43;14.13;;;7.90;99.90;;;;;;5096206;28;20458;-80
2023/10/18 03:22:29;;;;;;;16.67;15.27;;;7.90;99.90;;;;;;5095671;28;20473;-80
2023/10/18 03:24:59;;;;;;;15.87;14.60;;;7.90;99.90;;;;;;5095449;28;20846;-80
2023/10/18 03:27:30;;;;;;;15.20;13.77;;;7.90;99.90;;;;;;5094402;28;20453;-79
2023/10/18 03:29:59;;;;;;;16.73;15.33;;;7.90;99.90;;;;;;5093188;28;20450;-80
2023/10/18 03:32:28;;;;;;;15.63;14.43;;;7.80;99.90;;;;;;5093313;28;20470;-79
2023/10/18 03:34:56;;;;;;;16.37;14.97;;;7.60;99.90;;;;;;5094779;28;20456;-80
2023/10/18 03:37:25;;;;;;;15.43;14.23;;;7.60;1.00;;;;;;5095547;28;20445;-79
2023/10/18 03:39:54;;;;;;;16.40;15.10;;;7.70;1.00;;;;;;5094318;28;20900;-79
2023/10/18 03:42:31;;;;;;;17.10;15.60;;;7.70;1.00;;;;;;5094889;27;20841;-80
2023/10/18 03:45:00;;;;;;;17.50;16.10;;;7.80;1.00;;;;;;5091375;28;20478;-80
2023/10/18 03:47:36;;;;;;;16.00;14.70;;;7.80;1.00;;;;;;5091729;28;20469;-80
2023/10/18 03:50:08;;;;;;;16.77;15.37;;;7.80;1.00;;;;;;5085866;28;20793;-83
2023/10/18 03:52:38;;;;;;;15.67;14.47;;;7.80;1.00;;;;;;5090221;28;20478;-83
2023/10/18 03:55:12;;;;;;;16.07;14.80;;;7.80;1.00;;;;;;5087541;28;21340;-82
2023/10/18 03:57:41;;;;;;;18.23;16.57;;;7.90;1.00;;;;;;5098129;28;20453;-83
2023/10/18 04:02:56;;;;;;;19.30;17.40;;;7.80;99.90;;;;;;5088764;28;20480;-82
2023/10/18 04:05:37;;;;;;;17.30;15.80;;;7.90;1.00;;;;;;5091806;28;20522;-82
2023/10/18 04:08:06;;;;;;;18.77;15.93;;;7.80;99.90;;;;;;5093031;28;20979;-82
2023/10/18 04:10:36;;;;;;;16.80;15.40;;;7.80;1.00;;;;;;5096043;28;20969;-79
2023/10/18 04:13:12;;;;;;;19.00;17.20;;;7.80;1.00;;;;;;5092484;27;20476;-78
2023/10/18 04:15:41;;;;;;;18.40;16.53;;;7.80;1.00;;;;;;5090714;28;20441;-78
2023/10/18 04:18:15;;;;;;;19.00;17.40;;;7.80;1.00;;;;;;5086348;28;20458;-78
2023/10/18 04:20:46;;;;;;;18.23;16.60;;;7.70;1.00;;;;;;5091330;28;20446;-82
2023/10/18 04:23:18;;;;;;;17.60;15.90;;;7.70;1.00;;;;;;5094811;28;20481;-83
2023/10/18 04:25:57;;;;;;;18.47;16.77;;;7.80;1.00;;;;;;5091324;28;20489;-82
2023/10/18 04:28:26;;;;;;;16.47;14.97;;;7.70;1.00;;;;;;5097548;28;20540;-83
2023/10/18 04:30:59;;;;;;;19.00;17.40;;;7.80;1.00;;;;;;5092672;28;20449;-83
2023/10/18 04:33:35;;;;;;;18.07;16.60;;;7.80;1.00;;;;;;5094588;28;21400;-81
2023/10/18 04:36:09;;;;;;;17.20;15.70;;;7.70;1.00;;;;;;5096277;28;20533;-82
2023/10/18 04:38:42;;;;;;;17.93;16.37;;;7.70;99.90;;;;;;5097316;28;20474;-82
2023/10/18 04:41:22;;;;;;;19.50;17.47;;;7.80;1.00;;;;;;5093677;28;20437;-80
2023/10/18 04:43:51;;;;;;;18.50;16.90;;;7.80;1.00;;;;;;5097957;28;20465;-81
2023/10/18 04:46:26;;;;;;;16.67;15.23;;;7.80;1.00;;;;;;5098096;28;20567;-80
2023/10/18 04:49:16;;;;;;;17.30;15.80;;;7.80;99.90;;;;;;5099980;28;20437;-80
2023/10/18 04:51:48;;;;;;;17.57;15.90;;;7.80;99.90;;;;;;5096307;28;20449;-81
2023/10/18 04:54:18;;;;;;;17.07;15.47;;;7.80;99.90;;;;;;5091343;28;20453;-82
2023/10/18 04:56:47;;;;;;;17.97;16.27;;;7.90;99.90;;;;;;5094489;28;20450;-82
2023/10/18 04:59:35;;;;;;;16.83;15.30;;;7.80;99.90;;;;;;5095985;28;20486;-82
2023/10/18 05:02:05;;;;;;;17.80;16.30;;;7.80;99.90;;;;;;5097447;28;20823;-81
2023/10/18 05:04:35;;;;;;;17.60;16.13;;;7.70;99.90;;;;;;5098281;28;20468;-81
2023/10/18 05:07:04;;;;;;;18.37;16.60;;;7.80;99.90;;;;;;5099500;28;20541;-81
2023/10/18 05:09:34;;;;;;;17.20;15.70;;;7.80;99.90;;;;;;5103225;28;20460;-81
2023/10/18 05:12:07;;;;;;;17.77;16.17;;;7.70;99.90;;;;;;5100049;28;20557;-82
2023/10/18 05:14:43;;;;;;;17.10;15.70;;;7.70;99.90;;;;;;5097435;28;20557;-81
2023/10/18 05:17:18;;;;;;;16.43;15.13;;;7.70;99.90;;;;;;5098870;28;20441;-82
2023/10/18 05:19:48;;;;;;;17.17;15.67;;;7.70;99.90;;;;;;5097785;28;20455;-81
2023/10/18 05:22:19;;;;;;;17.70;16.20;;;7.70;99.90;;;;;;5099091;28;20472;-80
2023/10/18 05:24:55;;;;;;;16.60;15.37;;;7.80;99.90;;;;;;5099308;28;20518;-80
2023/10/18 05:27:27;;;;;;;17.33;15.97;;;7.70;99.90;;;;;;5102778;28;20464;-80
2023/10/18 05:29:57;;;;;;;17.70;16.10;;;7.50;99.90;;;;;;5106209;28;20838;-81
2023/10/18 05:32:49;;;;;;;20.00;18.20;;;7.50;1.00;;;;;;5104211;28;20465;-81
2023/10/18 05:35:26;;;;;;;20.20;18.43;;;7.50;1.00;;;;;;5104658;28;20552;-81
2023/10/18 05:37:59;;;;;;;19.53;17.63;;;7.60;1.00;;;;;;5106868;28;21311;-82
2023/10/18 05:43:31;;;;;;;20.33;18.27;;;7.70;1.00;;;;;;5091286;27;20543;-82
2023/10/18 05:46:07;;;;;;;20.30;18.40;;;7.80;1.00;;;;;;5103843;28;20505;-82
2023/10/18 05:48:40;;;;;;;19.20;17.40;;;7.80;1.00;;;;;;5102697;28;20468;-81
2023/10/18 05:51:26;;;;;;;20.33;18.60;;;7.70;1.00;;;;;;5102320;28;20464;-82
2023/10/18 05:54:05;;;;;;;20.97;18.93;;;7.70;1.00;;;;;;5102466;28;20813;-81
2023/10/18 05:56:34;;;;;;;20.33;18.50;;;7.70;1.00;;;;;;5101208;28;20506;-81
2023/10/18 06:01:58;;;;;;;21.37;19.30;;;7.80;1.00;;;;;;5089530;28;20454;-81
2023/10/18 06:04:28;;;;;;;20.87;19.00;;;7.70;1.00;;;;;;5099568;28;20829;-81
2023/10/18 06:07:04;;;;;;;20.57;18.87;;;7.80;1.00;;;;;;5094974;28;20482;-82
2023/10/18 06:09:44;;;;;;;21.00;19.00;;;7.80;1.00;;;;;;5097694;28;20448;-81
2023/10/18 06:12:15;;;;;;;21.70;19.53;;;7.80;1.00;;;;;;5093625;28;20462;-82
2023/10/18 06:14:45;;;;;;;20.93;18.93;;;7.90;1.00;;;;;;5093193;28;20922;-81
2023/10/18 06:17:19;;;;;;;23.23;21.13;;;7.90;1.00;;;;;;5099493;28;20445;-81
2023/10/18 06:19:50;;;;;;;20.73;18.83;;;7.90;1.00;;;;;;5093230;28;20460;-82
2023/10/18 06:22:39;;;;;;;23.88;21.77;;;8.00;1.00;;;;;;5096853;28;20443;-81
2023/10/18 06:25:09;;;;;;;21.87;19.77;;;7.80;1.00;;;;;;5091671;28;20219;-81
2023/10/18 06:27:40;;;;;;;20.53;18.83;;;8.10;1.00;;;;;;5090902;28;20519;-81
2023/10/18 06:30:14;;;;;;;20.60;18.70;;;8.20;1.00;;;;;;5094278;28;20446;-81
2023/10/18 06:32:43;;;;;;;22.00;19.90;;;8.20;1.00;;;;;;5097764;28;20521;-80
2023/10/18 06:35:16;;;;;;;24.53;20.07;;;8.20;1.00;;;;;;5097386;28;20456;-81
2023/10/18 06:37:45;;;;;;;23.27;21.27;;;8.20;1.00;;;;;;5094981;28;20589;-80
2023/10/18 06:40:22;;;;;;;21.10;19.30;;;8.30;1.00;;;;;;5097769;27;20450;-81
2023/10/18 06:42:51;;;;;;;22.17;19.87;;;8.30;1.00;;;;;;5094611;27;20488;-81
2023/10/18 06:45:19;;;;;;;21.80;19.80;;;8.40;1.00;;;;;;5105449;28;20501;-81
2023/10/18 06:47:47;;;;;;;21.40;19.60;;;8.40;1.00;;;;;;5099779;28;20481;-81
2023/10/18 06:50:19;;;;;;;22.60;20.40;;;8.40;1.00;;;;;;5098562;28;20455;-81
2023/10/18 06:52:53;;;;;;;22.53;20.17;;;8.40;19.90;;;;;;5093228;28;20568;-80
2023/10/18 06:55:35;;;;;;;22.07;20.30;;;8.50;1.00;;;;;;5092742;28;20549;-81
2023/10/18 06:58:12;;;;;;;22.03;20.13;;;8.50;1.00;;;;;;5098385;28;20456;-81
2023/10/18 07:00:44;;;;;;;23.10;20.90;;;8.50;1.00;;;;;;5098765;28;20453;-81
2023/10/18 07:03:16;;;;;;;21.70;19.90;;;8.50;12.60;;;;;;5097840;28;20474;-80
2023/10/18 07:05:49;;;;;;;24.73;22.40;;;8.60;7.30;;;;;;5096361;28;20502;-80
2023/10/18 07:08:25;;;;;;;27.10;24.43;;;8.70;1.00;;;;;;5098735;28;20481;-81
2023/10/18 07:10:56;;;;;;;24.90;22.80;;;8.80;24.20;;;;;;5099495;28;20433;-81
2023/10/18 07:13:47;;;;;;;23.70;21.70;;;8.80;12.80;;;;;;5101901;28;20476;-82
2023/10/18 07:16:24;;;;;;;25.43;22.87;;;8.80;29.40;;;;;;5099706;28;20452;-81
2023/10/18 07:19:06;;;;;;;23.33;21.13;;;8.80;1.00;;;;;;5103116;28;20958;-82
2023/10/18 07:21:35;;;;;;;23.23;21.07;;;8.80;1.00;;;;;;5100783;28;20520;-81
2023/10/18 07:24:10;;;;;;;24.77;22.30;;;8.90;54.10;;;;;;5100460;28;20450;-81
2023/10/18 07:26:39;;;;;;;21.80;20.10;;;8.90;69.40;;;;;;5100442;28;20739;-81
2023/10/18 07:29:07;;;;;;;23.10;21.03;;;9.00;53.10;;;;;;5096177;28;20485;-81
2023/10/18 07:31:38;;;;;;;22.37;20.33;;;9.10;99.90;;;;;;5098348;28;20553;-81
2023/10/18 07:34:08;;;;;;;24.80;22.60;;;9.30;99.90;;;;;;5097952;28;21405;-81
2023/10/18 07:36:38;;;;;;;23.80;21.90;;;9.50;99.90;;;;;;5099752;28;20465;-81
2023/10/18 07:39:11;;;;;;;20.17;18.50;;;9.70;1.00;;;;;;5094339;28;20510;-81
2023/10/18 07:41:40;;;;;;;21.73;20.10;;;9.90;1.00;;;;;;5099334;28;20462;-81
2023/10/18 07:44:09;;;;;;;20.27;18.57;;;10.10;1.00;;;;;;5097069;28;20852;-81
2023/10/18 07:46:40;;;;;;;21.67;20.00;;;10.20;99.90;;;;;;5096234;28;20452;-82
2023/10/18 07:49:13;;;;;;;21.03;19.43;;;10.40;99.90;;;;;;5099100;28;20427;-82
2023/10/18 07:51:49;;;;;;;21.13;19.43;;;10.50;99.90;;;;;;5097409;28;20569;-81
2023/10/18 07:54:21;;;;;;;21.10;19.30;;;10.70;99.90;;;;;;5095083;28;20480;-82
2023/10/18 07:56:50;;;;;;;19.50;17.90;;;10.90;99.90;;;;;;5096868;28;20456;-82
2023/10/18 07:59:31;;;;;;;19.83;18.07;;;11.10;99.90;;;;;;5099812;28;20452;-82
2023/10/18 08:02:12;;;;;;;20.23;18.70;;;11.30;99.90;;;;;;5094000;28;21008;-82
2023/10/18 08:04:43;;;;;;;19.70;18.10;;;11.40;99.90;;;;;;5094280;28;20461;-81
2023/10/18 08:07:15;;;;;;;20.10;18.37;;;11.50;99.90;;;;;;5097574;28;20467;-82
2023/10/18 08:09:48;;;;;;;20.20;18.50;;;11.70;99.90;;;;;;5097537;28;20455;-80
2023/10/18 08:12:28;;;;;;;19.50;18.20;;;11.90;99.90;;;;;;5098977;28;20474;-82
2023/10/18 08:14:57;;;;;;;19.23;17.93;;;11.90;99.90;;;;;;5094692;28;20462;-81
2023/10/18 08:17:42;;;;;;;21.33;19.67;;;12.00;99.90;;;;;;5100248;28;20450;-82
2023/10/18 08:20:54;;;;;;;20.63;18.93;;;12.00;99.90;;;;;;5102337;28;21054;-82
2023/10/18 08:23:19;;;;;;;19.47;18.10;;;12.10;99.90;;;;;;5089644;28;20481;-81
2023/10/18 08:26:03;;;;;;;19.13;17.83;;;12.30;99.90;;;;;;5095942;28;20446;-82
2023/10/18 08:28:38;;;;;;;20.80;19.10;;;12.20;99.90;;;;;;5096169;28;21025;-82
2023/10/18 08:31:26;;;;;;;19.57;18.07;;;12.20;99.90;;;;;;5097893;28;20461;-82
2023/10/18 08:33:56;;;;;;;19.27;17.80;;;12.40;99.90;;;;;;5096469;28;20462;-82
2023/10/18 08:36:30;;;;;;;18.87;17.37;;;12.70;99.90;;;;;;5097364;28;20460;-83
2023/10/18 08:38:59;;;;;;;20.83;19.10;;;12.70;99.90;;;;;;5094926;28;20526;-82
2023/10/18 08:41:36;;;;;;;20.00;18.33;;;12.70;99.90;;;;;;5094130;28;22429;-82
2023/10/18 08:44:08;;;;;;;20.20;18.40;;;12.70;99.90;;;;;;5095627;28;20453;-82
2023/10/18 08:46:42;;;;;;;19.47;17.93;;;13.10;99.90;;;;;;5097576;28;20445;-83
2023/10/18 08:49:13;;;;;;;18.80;17.30;;;13.60;99.90;;;;;;5098054;28;21031;-82
2023/10/18 08:51:44;;;;;;;18.83;17.20;;;13.80;99.90;;;;;;5097092;28;20972;-82
2023/10/18 08:54:19;;;;;;;19.43;17.90;;;13.90;99.90;;;;;;5092440;28;20461;-83
2023/10/18 08:56:51;;;;;;;19.00;17.50;;;14.10;99.90;;;;;;5105517;28;20464;-83
2023/10/18 08:59:20;;;;;;;17.80;16.47;;;14.40;99.90;;;;;;5099001;28;20583;-82
2023/10/18 09:02:12;;;;;;;18.03;16.50;;;14.80;99.90;;;;;;5097446;28;20454;-83
2023/10/18 09:04:44;;;;;;;18.37;16.80;;;15.30;99.90;;;;;;5099577;28;20770;-82
2023/10/18 09:07:42;;;;;;;14.90;13.80;;;15.40;99.90;;;;;;5099688;28;21294;-83
2023/10/18 09:10:33;;;;;;;12.57;11.67;;;15.70;99.90;;;;;;5100612;28;20500;-82
2023/10/18 09:13:29;;;;;;;12.20;11.40;;;16.10;99.90;;;;;;5100756;28;20565;-83
2023/10/18 09:16:01;;;;;;;11.63;10.93;;;16.70;99.90;;;;;;5098965;28;20464;-83
2023/10/18 09:18:31;;;;;;;11.77;10.83;;;17.30;99.90;;;;;;5095180;28;20492;-83
2023/10/18 09:21:07;;;;;;;11.67;10.77;;;17.50;99.90;;;;;;5097765;28;20445;-84
2023/10/18 09:23:36;;;;;;;10.37;9.50;;;17.60;99.70;;;;;;5096249;28;20469;-83
2023/10/18 09:26:10;;;;;;;9.93;9.33;;;17.60;98.20;;;;;;5093889;28;20958;-83
2023/10/18 09:28:42;;;;;;;9.57;8.90;;;17.10;90.60;;;;;;5094826;28;20449;-83
2023/10/18 09:31:16;;;;;;;10.70;9.83;;;16.80;87.10;;;;;;5095301;28;20457;-84
2023/10/18 09:33:52;;;;;;;10.00;9.40;;;16.60;86.20;;;;;;5098450;28;20534;-82
2023/10/18 09:36:23;;;;;;;10.70;9.93;;;16.30;80.00;;;;;;5093251;28;20442;-81
2023/10/18 09:38:53;;;;;;;10.00;9.20;;;16.10;77.80;;;;;;5094702;28;20441;-82
2023/10/18 09:41:22;;;;;;;10.40;9.90;;;16.10;79.80;;;;;;5096711;28;20456;-83
2023/10/18 09:43:51;;;;;;;10.33;9.63;;;16.00;78.50;;;;;;5095958;28;20474;-83
2023/10/18 09:46:20;;;;;;;11.20;10.37;;;15.90;79.90;;;;;;5097424;28;20478;-83
2023/10/18 09:48:48;;;;;;;11.33;10.53;;;15.90;80.90;;;;;;5099749;28;20462;-82
2023/10/18 09:51:21;;;;;;;10.43;9.83;;;15.70;81.00;;;;;;5101631;28;20445;-82
2023/10/18 09:53:50;;;;;;;11.23;10.50;;;15.60;81.60;;;;;;5099372;28;20457;-81
2023/10/18 09:56:24;;;;;;;12.00;11.10;;;15.30;80.90;;;;;;5100949;28;20448;-83
2023/10/18 09:59:05;;;;;;;12.50;11.57;;;15.10;81.10;;;;;;5095811;28;20456;-83
2023/10/18 10:04:18;;;;;;;11.53;10.73;;;15.00;83.40;;;;;;5096944;28;20448;-82
2023/10/18 10:06:47;;;;;;;10.53;9.83;;;14.80;84.70;;;;;;5099666;28;20446;-82
2023/10/18 10:09:17;;;;;;;11.27;10.53;;;14.90;90.00;;;;;;5099965;28;21484;-82
2023/10/18 10:11:46;;;;;;;13.50;12.50;;;14.90;90.80;;;;;;5101446;28;20449;-82
2023/10/18 10:14:17;;;;;;;11.43;10.43;;;15.20;94.90;;;;;;5099000;28;20453;-83
2023/10/18 10:16:52;;;;;;;10.63;10.03;;;15.60;97.70;;;;;;5104306;28;20457;-82
2023/10/18 10:19:25;;;;;;;10.77;9.80;;;16.10;97.20;;;;;;5100411;28;20483;-82
2023/10/18 10:21:55;;;;;;;10.60;10.00;;;16.50;98.50;;;;;;5101360;28;20531;-82
2023/10/18 10:24:33;;;;;;;11.00;10.40;;;16.80;97.80;;;;;;5095553;28;20971;-82
2023/10/18 10:27:28;;;;;;;10.93;10.03;;;17.20;99.30;;;;;;5101373;28;20456;-82
2023/10/18 10:30:03;;;;;;;10.70;10.00;;;17.50;98.60;;;;;;5095633;28;20450;-82
2023/10/18 10:32:31;;;;;;;9.53;8.93;;;18.00;99.90;;;;;;5097656;28;20531;-82
2023/10/18 10:35:14;;;;;;;9.40;8.90;;;18.40;99.60;;;;;;5098805;28;20546;-82
2023/10/18 10:37:50;;;;;;;9.20;8.60;;;18.70;99.30;;;;;;5098018;28;20809;-83
2023/10/18 10:40:35;;;;;;;10.30;9.70;;;18.80;95.90;;;;;;5097922;28;20752;-82
2023/10/18 10:43:08;;;;;;;9.93;9.33;;;18.40;93.50;;;;;;5101239;27;20466;-82
2023/10/18 10:45:43;;;;;;;9.80;9.20;;;18.30;92.30;;;;;;5097141;28;20462;-83
2023/10/18 10:48:46;;;;;;;9.57;8.83;;;18.70;95.60;;;;;;5099605;28;20473;-83
2023/10/18 10:51:20;;;;;;;10.17;9.57;;;19.00;96.20;;;;;;5015960;28;20496;-82
2023/10/18 10:53:50;;;;;;;9.50;9.00;;;19.10;93.80;;;;;;5087891;28;20476;-83
2023/10/18 10:56:39;;;;;;;10.60;9.90;;;19.10;94.80;;;;;;5095690;28;20514;-83
2023/10/18 10:59:15;;;;;;;9.70;9.03;;;19.00;91.70;;;;;;5096192;28;20460;-83
2023/10/18 11:02:05;;;;;;;9.37;8.80;;;18.40;86.00;;;;;;5099090;28;20437;-82
2023/10/18 11:04:59;;;;;;;10.00;9.50;;;18.10;84.90;;;;;;5097007;28;20589;-83
2023/10/18 11:07:29;;;;;;;9.80;9.23;;;17.70;80.70;;;;;;5094742;28;20514;-83
2023/10/18 11:10:06;;;;;;;10.23;9.50;;;17.40;78.00;;;;;;5095425;28;20466;-83
2023/10/18 11:12:35;;;;;;;8.87;8.47;;;17.20;75.80;;;;;;5097617;28;20740;-83
2023/10/18 11:15:09;;;;;;;10.00;9.47;;;17.00;74.70;;;;;;5093525;28;20490;-83
2023/10/18 11:17:42;;;;;;;9.53;8.83;;;16.60;71.70;;;;;;5099413;28;20457;-83
2023/10/18 11:20:19;;;;;;;9.40;8.90;;;16.50;73.20;;;;;;5099457;28;20525;-82
2023/10/18 11:22:50;;;;;;;9.50;8.90;;;16.50;77.30;;;;;;5102812;28;20478;-82
2023/10/18 11:25:30;;;;;;;10.03;9.53;;;16.50;78.80;;;;;;5099524;28;20476;-83
2023/10/18 11:28:18;;;;;;;9.00;8.50;;;16.40;76.70;;;;;;5107075;28;20597;-83
2023/10/18 11:30:53;;;;;;;9.33;8.73;;;16.30;75.00;;;;;;5106832;28;20453;-83
2023/10/18 11:33:36;;;;;;;8.97;8.47;;;16.30;73.20;;;;;;5099545;28;20497;-82
2023/10/18 11:36:08;;;;;;;9.70;9.03;;;16.30;74.40;;;;;;5101755;28;20846;-83
2023/10/18 11:38:37;;;;;;;8.20;7.80;;;16.30;74.30;;;;;;5098559;28;20536;-83
2023/10/18 11:41:11;;;;;;;8.83;8.10;;;16.30;75.40;;;;;;5094186;28;21030;-83
2023/10/18 11:43:40;;;;;;;8.43;8.03;;;16.20;76.80;;;;;;5097212;28;20477;-83
2023/10/18 11:46:11;;;;;;;10.30;9.70;;;16.30;75.60;;;;;;5096560;27;20452;-83
2023/10/18 11:48:43;;;;;;;8.00;7.40;;;16.30;77.60;;;;;;5100699;28;20450;-82
2023/10/18 11:51:13;;;;;;;8.07;7.77;;;16.30;74.70;;;;;;5101455;28;20449;-84
2023/10/18 11:53:41;;;;;;;8.30;7.90;;;16.30;74.90;;;;;;5096850;28;20497;-82
2023/10/18 11:56:10;;;;;;;9.37;8.83;;;16.30;73.00;;;;;;5094587;28;20989;-83
2023/10/18 11:58:41;;;;;;;8.50;7.90;;;16.30;73.30;;;;;;5097622;28;20971;-82
2023/10/18 12:01:20;;;;;;;8.03;7.63;;;16.20;74.00;;;;;;5097390;28;20458;-83
2023/10/18 12:03:51;;;;;;;8.33;7.97;;;16.20;74.20;;;;;;5102644;28;21483;-83
2023/10/18 12:06:21;;;;;;;9.63;8.90;;;16.20;74.40;;;;;;5097836;28;20448;-82
2023/10/18 12:09:09;;;;;;;9.53;8.90;;;16.20;76.00;;;;;;5099446;28;20450;-82
2023/10/18 12:11:38;;;;;;;8.60;8.17;;;16.20;77.30;;;;;;5096154;28;20450;-83
2023/10/18 12:14:08;;;;;;;9.60;9.03;;;16.20;76.70;;;;;;5100705;28;21029;-81
2023/10/18 12:16:36;;;;;;;9.10;8.40;;;16.10;78.10;;;;;;5095681;28;20547;-83
2023/10/18 12:19:06;;;;;;;9.20;8.60;;;16.10;81.10;;;;;;5100932;28;20449;-83
2023/10/18 12:21:35;;;;;;;10.00;9.17;;;16.10;86.00;;;;;;5100315;28;20450;-82
2023/10/18 12:24:04;;;;;;;10.50;9.70;;;16.10;87.60;;;;;;5098725;28;20870;-81
2023/10/18 12:26:34;;;;;;;11.73;11.03;;;16.10;86.20;;;;;;5097107;28;20504;-83
2023/10/18 12:29:05;;;;;;;11.07;10.47;;;16.00;86.90;;;;;;5097383;28;20530;-82
2023/10/18 12:31:39;;;;;;;9.90;9.40;;;16.00;89.10;;;;;;5096772;28;20451;-82
2023/10/18 12:34:14;;;;;;;11.10;10.50;;;15.90;90.60;;;;;;5095846;28;20548;-81
2023/10/18 12:36:49;;;;;;;9.57;9.00;;;15.90;90.00;;;;;;5098804;28;20441;-82
2023/10/18 12:39:21;;;;;;;9.47;9.00;;;15.80;86.80;;;;;;5098531;28;20491;-82
2023/10/18 12:41:53;;;;;;;10.63;10.03;;;15.80;86.90;;;;;;5088558;28;20456;-83
2023/10/18 12:44:25;;;;;;;10.33;9.60;;;15.80;87.10;;;;;;5097782;27;20800;-83
2023/10/18 12:46:54;;;;;;;11.53;10.60;;;15.80;86.50;;;;;;5096888;28;20741;-84
2023/10/18 12:49:24;;;;;;;10.50;9.80;;;15.80;84.20;;;;;;5096496;28;20470;-84
2023/10/18 12:51:59;;;;;;;10.77;9.97;;;15.80;84.60;;;;;;5096397;28;21148;-83
2023/10/18 12:54:33;;;;;;;10.53;9.83;;;15.80;86.90;;;;;;5098080;28;20448;-83
2023/10/18 12:57:13;;;;;;;10.50;9.70;;;15.80;87.60;;;;;;5095695;28;20453;-83
2023/10/18 13:00:00;;;;;;;10.17;9.57;;;15.70;87.00;;;;;;5096271;28;20449;-83
2023/10/18 13:05:13;;;;;;;10.37;9.70;;;15.60;88.00;;;;;;5084371;28;20557;-83
2023/10/18 13:07:43;;;;;;;9.57;8.97;;;15.60;86.30;;;;;;5092430;28;20523;-82
2023/10/18 13:10:15;;;;;;;10.60;9.80;;;15.60;84.90;;;;;;5093647;28;21435;-84
2023/10/18 13:12:51;;;;;;;10.20;9.60;;;15.60;86.10;;;;;;5100806;28;20541;-85
2023/10/18 13:15:22;;;;;;;9.90;9.30;;;15.60;87.50;;;;;;5098569;28;21145;-83
2023/10/18 13:17:51;;;;;;;10.93;9.83;;;15.60;88.20;;;;;;5090737;28;20442;-84
2023/10/18 13:20:25;;;;;;;10.63;9.83;;;15.60;87.10;;;;;;5089762;28;20462;-84
2023/10/18 13:22:55;;;;;;;10.10;9.50;;;15.60;90.40;;;;;;5098566;28;20498;-83